Time;durP1;ratioP1;P1;durP2;ratioP2;P2;SDS_P1;SDS_P2;PMS_P1;PMS_P2;Temp;Humidity;BMP_temperature;BMP_pressure;BME280_temperature;BME280_humidity;BME280_pressure;Samples;Min_cycle;Max_cycle;Signal;HPM_P1;HPM_P2
2022/05/06 00:00:12;;;;;;;7.63;5.10;;;8.60;99.90;;;;;;5056703;28;20094;-82
2022/05/06 00:02:37;;;;;;;9.68;5.15;;;8.50;99.90;;;;;;5074890;28;20088;-81
2022/05/06 00:05:05;;;;;;;6.90;4.72;;;8.40;99.90;;;;;;5056393;28;20556;-80
2022/05/06 00:07:30;;;;;;;8.02;5.32;;;8.40;99.90;;;;;;5074512;28;20092;-83
2022/05/06 00:09:56;;;;;;;7.63;5.05;;;8.40;99.90;;;;;;5074180;28;20044;-81
2022/05/06 00:12:22;;;;;;;8.23;5.22;;;8.30;99.90;;;;;;5056598;28;20017;-81
2022/05/06 00:14:48;;;;;;;8.95;5.05;;;8.30;99.90;;;;;;5074170;28;20033;-81
2022/05/06 00:17:14;;;;;;;9.65;5.55;;;8.30;99.90;;;;;;5074400;28;20024;-83
2022/05/06 00:19:42;;;;;;;9.73;4.82;;;8.20;99.90;;;;;;5073536;28;20025;-81
2022/05/06 00:22:09;;;;;;;8.57;5.53;;;8.20;99.90;;;;;;5073267;28;20034;-81
2022/05/06 00:24:34;;;;;;;8.30;5.35;;;8.10;99.90;;;;;;5054826;28;20433;-81
2022/05/06 00:27:00;;;;;;;9.52;5.30;;;8.10;99.90;;;;;;5073345;28;20036;-80
2022/05/06 00:29:27;;;;;;;7.25;4.93;;;8.00;99.90;;;;;;5055521;28;20020;-83
2022/05/06 00:31:53;;;;;;;9.50;5.38;;;8.00;99.90;;;;;;5082035;28;20035;-84
2022/05/06 00:34:19;;;;;;;8.98;5.35;;;8.00;99.90;;;;;;5058890;28;20025;-83
2022/05/06 00:36:44;;;;;;;8.80;5.25;;;7.90;99.90;;;;;;5056625;28;20545;-84
2022/05/06 00:39:10;;;;;;;8.07;5.20;;;7.90;99.90;;;;;;5057176;28;20046;-80
2022/05/06 00:41:36;;;;;;;10.35;6.32;;;7.90;99.90;;;;;;5073194;28;20021;-81
2022/05/06 00:44:06;;;;;;;9.77;5.57;;;8.00;99.90;;;;;;5072587;28;20024;-79
2022/05/06 00:46:33;;;;;;;8.13;5.15;;;8.00;99.90;;;;;;5054901;28;20114;-82
2022/05/06 00:48:59;;;;;;;8.82;5.32;;;8.00;99.90;;;;;;5055145;28;20027;-82
2022/05/06 00:51:25;;;;;;;6.32;5.07;;;7.90;99.90;;;;;;5054918;28;20365;-82
2022/05/06 00:53:53;;;;;;;12.48;5.88;;;7.80;99.90;;;;;;5054957;28;20040;-81
2022/05/06 00:56:19;;;;;;;9.20;4.72;;;7.70;99.90;;;;;;5072766;28;20549;-82
2022/05/06 00:58:45;;;;;;;8.48;5.72;;;7.70;99.90;;;;;;5054359;28;20032;-82
2022/05/06 01:01:11;;;;;;;9.30;5.32;;;7.60;99.90;;;;;;5054696;28;20029;-80
2022/05/06 01:03:37;;;;;;;11.27;5.93;;;7.50;99.90;;;;;;5054987;28;20028;-81
2022/05/06 01:06:07;;;;;;;9.23;5.75;;;7.50;99.90;;;;;;5072868;28;20532;-81
2022/05/06 01:08:34;;;;;;;8.27;5.43;;;7.40;99.90;;;;;;5073755;28;20483;-83
2022/05/06 01:11:00;;;;;;;9.35;5.07;;;7.40;99.90;;;;;;5058752;28;20113;-82
2022/05/06 01:13:27;;;;;;;9.52;5.00;;;7.40;99.90;;;;;;5058763;28;20036;-82
2022/05/06 01:15:56;;;;;;;9.10;6.07;;;7.30;99.90;;;;;;5077176;28;20143;-81
2022/05/06 01:18:22;;;;;;;9.98;5.18;;;7.30;99.90;;;;;;5058735;28;20396;-84
2022/05/06 01:20:52;;;;;;;8.30;5.40;;;7.20;99.90;;;;;;5076921;28;20025;-83
2022/05/06 01:23:19;;;;;;;10.27;5.97;;;7.30;99.90;;;;;;5058881;28;20032;-84
2022/05/06 01:25:46;;;;;;;11.00;5.97;;;7.30;99.90;;;;;;5059680;28;20104;-84
2022/05/06 01:28:14;;;;;;;10.35;6.38;;;7.30;99.90;;;;;;5059625;28;20025;-84
2022/05/06 01:30:48;;;;;;;7.35;6.20;;;7.40;99.90;;;;;;5059921;28;20031;-79
2022/05/06 01:33:21;;;;;;;13.57;6.97;;;7.40;99.90;;;;;;5058565;28;20047;-79
2022/05/06 01:35:47;;;;;;;8.68;5.90;;;7.40;99.90;;;;;;5058492;28;20343;-82
2022/05/06 01:38:46;;;;;;;9.85;5.88;;;7.40;99.90;;;;;;5076108;28;20033;-79
2022/05/06 01:41:26;;;;;;;12.73;8.02;;;7.40;99.90;;;;;;5070953;28;20088;-82
2022/05/06 01:44:03;;;;;;;9.85;6.00;;;7.50;99.90;;;;;;5076146;28;20024;-82
2022/05/06 01:46:29;;;;;;;11.25;5.68;;;7.50;99.90;;;;;;5057628;28;20077;-78
2022/05/06 01:48:56;;;;;;;11.05;6.40;;;7.40;99.90;;;;;;5057594;28;20391;-81
2022/05/06 01:51:23;;;;;;;11.05;6.45;;;7.40;99.90;;;;;;5057511;28;20155;-80
2022/05/06 01:53:51;;;;;;;8.00;5.97;;;7.40;99.90;;;;;;5076030;28;20094;-80
2022/05/06 01:56:19;;;;;;;10.27;6.30;;;7.40;99.90;;;;;;5076038;28;20032;-81
2022/05/06 01:58:45;;;;;;;8.52;5.72;;;7.30;99.90;;;;;;5075412;28;20350;-80
2022/05/06 02:01:14;;;;;;;11.05;6.97;;;7.30;99.90;;;;;;5075679;28;20024;-80
2022/05/06 02:06:25;;;;;;;9.60;6.10;;;7.30;99.90;;;;;;5076022;28;20123;-79
2022/05/06 02:08:50;;;;;;;9.73;6.40;;;7.30;99.90;;;;;;5057478;28;20484;-82
2022/05/06 02:11:17;;;;;;;9.45;5.78;;;7.30;99.90;;;;;;5076523;28;20028;-81
2022/05/06 02:13:43;;;;;;;9.45;6.57;;;7.30;99.90;;;;;;5059662;28;20024;-79
2022/05/06 02:16:08;;;;;;;9.52;6.57;;;7.20;99.90;;;;;;5059867;28;20028;-80
2022/05/06 02:18:34;;;;;;;13.68;6.20;;;7.20;99.90;;;;;;5059933;28;20028;-82
2022/05/06 02:21:00;;;;;;;10.38;6.18;;;7.20;99.90;;;;;;5059210;28;20178;-81
2022/05/06 02:23:26;;;;;;;12.15;6.60;;;7.10;99.90;;;;;;5079241;28;20524;-80
2022/05/06 02:25:52;;;;;;;10.80;6.15;;;7.00;99.90;;;;;;5065021;28;20059;-82
2022/05/06 02:28:18;;;;;;;9.32;6.18;;;6.90;99.90;;;;;;5077726;28;20101;-80
2022/05/06 02:33:30;;;;;;;9.18;5.97;;;6.80;99.90;;;;;;5076100;28;20031;-81
2022/05/06 02:35:56;;;;;;;10.02;5.85;;;6.80;99.90;;;;;;5058356;28;20024;-80
2022/05/06 02:38:22;;;;;;;8.20;5.45;;;6.80;99.90;;;;;;5058314;28;20025;-80
2022/05/06 02:40:49;;;;;;;9.73;6.43;;;6.80;99.90;;;;;;5057259;28;20024;-81
2022/05/06 02:43:15;;;;;;;9.65;5.70;;;6.70;99.90;;;;;;5057647;28;20056;-83
2022/05/06 02:45:41;;;;;;;9.82;6.75;;;6.70;99.90;;;;;;5081247;28;20038;-81
2022/05/06 02:48:07;;;;;;;7.97;6.38;;;6.60;99.90;;;;;;5074757;28;20035;-82
2022/05/06 02:50:34;;;;;;;10.82;6.05;;;6.60;99.90;;;;;;5086574;28;20238;-81
2022/05/06 02:53:00;;;;;;;10.10;6.32;;;6.60;99.90;;;;;;5075507;28;20024;-79
2022/05/06 02:55:26;;;;;;;10.18;6.22;;;6.60;99.90;;;;;;5056717;28;20070;-80
2022/05/06 02:57:52;;;;;;;10.07;6.40;;;6.60;99.90;;;;;;5056968;28;20032;-80
2022/05/06 03:00:18;;;;;;;11.13;6.20;;;6.60;99.90;;;;;;5057862;28;20032;-80
2022/05/06 03:02:43;;;;;;;10.20;6.22;;;6.50;99.90;;;;;;5077249;28;20024;-83
2022/05/06 03:05:10;;;;;;;10.93;6.53;;;6.50;99.90;;;;;;5060658;28;20319;-83
2022/05/06 03:07:36;;;;;;;9.77;6.15;;;6.40;99.90;;;;;;5079143;28;20035;-82
2022/05/06 03:10:03;;;;;;;9.40;6.60;;;6.40;99.90;;;;;;5058200;28;20131;-81
2022/05/06 03:12:30;;;;;;;11.50;6.95;;;6.30;99.90;;;;;;5076158;28;20020;-85
2022/05/06 03:14:58;;;;;;;13.30;6.47;;;6.30;99.90;;;;;;5076777;28;20021;-84
2022/05/06 03:17:24;;;;;;;11.70;6.80;;;6.20;99.90;;;;;;5058871;28;20032;-86
2022/05/06 03:19:50;;;;;;;11.02;6.57;;;6.30;99.90;;;;;;5059038;28;20108;-84
2022/05/06 03:22:16;;;;;;;9.98;6.68;;;6.20;99.90;;;;;;5058403;28;20476;-83
2022/05/06 03:24:45;;;;;;;9.20;6.38;;;6.20;99.90;;;;;;5078303;28;20024;-83
2022/05/06 03:29:56;;;;;;;9.77;6.18;;;6.10;99.90;;;;;;5085147;28;20085;-85
2022/05/06 03:32:22;;;;;;;10.77;6.63;;;6.10;99.90;;;;;;5075904;28;20032;-82
2022/05/06 03:34:49;;;;;;;11.88;7.07;;;6.10;99.90;;;;;;5057779;28;20033;-82
2022/05/06 03:37:15;;;;;;;9.90;7.20;;;6.10;99.90;;;;;;5075130;28;20040;-85
2022/05/06 03:39:40;;;;;;;9.23;6.65;;;6.00;99.90;;;;;;5077045;28;20058;-82
2022/05/06 03:42:06;;;;;;;13.45;7.20;;;6.10;99.90;;;;;;5076405;28;20017;-84
2022/05/06 03:44:33;;;;;;;11.25;7.38;;;6.00;99.90;;;;;;5057697;28;20032;-84
2022/05/06 03:46:58;;;;;;;11.88;6.57;;;6.00;99.90;;;;;;5075912;28;20048;-84
2022/05/06 03:49:24;;;;;;;12.20;6.88;;;6.00;99.90;;;;;;5058316;28;20021;-82
2022/05/06 03:51:50;;;;;;;11.02;7.13;;;6.10;99.90;;;;;;5057559;28;20388;-83
2022/05/06 03:54:16;;;;;;;12.75;7.43;;;6.10;99.90;;;;;;5058032;28;20028;-83
2022/05/06 03:56:42;;;;;;;13.80;7.57;;;6.10;99.90;;;;;;5076101;28;20033;-84
2022/05/06 03:59:09;;;;;;;14.50;8.38;;;6.20;99.90;;;;;;5077939;28;20031;-84
2022/05/06 04:01:35;;;;;;;12.70;8.23;;;6.20;99.90;;;;;;5060478;28;20047;-82
2022/05/06 04:04:01;;;;;;;12.68;7.90;;;6.20;99.90;;;;;;5078765;28;20059;-84
2022/05/06 04:06:27;;;;;;;11.77;7.43;;;6.20;99.90;;;;;;5061233;28;20067;-84
2022/05/06 04:08:54;;;;;;;11.23;6.82;;;6.20;99.90;;;;;;5082188;28;20021;-85
2022/05/06 04:11:20;;;;;;;11.93;7.20;;;6.20;99.90;;;;;;5083899;28;20016;-80
2022/05/06 04:13:46;;;;;;;12.18;7.40;;;6.30;99.90;;;;;;5075917;28;20465;-84
2022/05/06 04:16:12;;;;;;;12.20;7.18;;;6.20;99.90;;;;;;5075563;28;20028;-82
2022/05/06 04:18:38;;;;;;;11.38;7.07;;;6.30;99.90;;;;;;5057813;28;20032;-80
2022/05/06 04:23:48;;;;;;;10.13;7.03;;;6.20;99.90;;;;;;5076159;28;20027;-81
2022/05/06 04:26:13;;;;;;;10.35;7.15;;;6.30;99.90;;;;;;5077307;28;20028;-83
2022/05/06 04:28:40;;;;;;;15.07;7.70;;;6.30;99.90;;;;;;5088546;28;20024;-84
2022/05/06 04:31:06;;;;;;;13.73;7.82;;;6.30;99.90;;;;;;5070470;28;20020;-86
2022/05/06 04:33:32;;;;;;;10.80;7.70;;;6.30;99.90;;;;;;5069844;28;20096;-86
2022/05/06 04:35:59;;;;;;;14.15;7.72;;;6.30;99.90;;;;;;5087072;28;20028;-81
2022/05/06 04:38:26;;;;;;;16.50;8.88;;;6.40;99.90;;;;;;5083269;28;20020;-85
2022/05/06 04:40:56;;;;;;;14.80;7.40;;;6.50;99.90;;;;;;5065947;28;20029;-83
2022/05/06 04:43:22;;;;;;;13.48;7.82;;;6.60;99.90;;;;;;5084583;28;20024;-84
2022/05/06 04:45:49;;;;;;;11.43;7.55;;;6.60;99.90;;;;;;5063762;28;20468;-85
2022/05/06 04:48:15;;;;;;;14.98;8.18;;;6.70;99.90;;;;;;5062895;28;20062;-83
2022/05/06 04:50:42;;;;;;;13.45;7.82;;;6.80;99.90;;;;;;5063540;28;20035;-83
2022/05/06 04:53:09;;;;;;;11.18;8.35;;;6.80;99.90;;;;;;5082349;28;20033;-86
2022/05/06 04:55:39;;;;;;;13.32;7.80;;;6.80;99.90;;;;;;5064453;28;20024;-83
2022/05/06 04:58:06;;;;;;;10.93;7.40;;;6.90;99.90;;;;;;5064871;28;20108;-83
2022/05/06 05:00:31;;;;;;;13.70;8.70;;;6.90;99.90;;;;;;5065376;28;20078;-84
2022/05/06 05:02:57;;;;;;;14.65;9.35;;;7.00;99.90;;;;;;5093000;28;20029;-83
2022/05/06 05:05:24;;;;;;;18.13;10.07;;;7.20;99.90;;;;;;5086223;28;20017;-83
2022/05/06 05:07:50;;;;;;;21.02;8.65;;;7.30;99.90;;;;;;5062282;28;20372;-83
2022/05/06 05:10:16;;;;;;;16.77;8.77;;;7.50;99.90;;;;;;5062380;28;20115;-83
2022/05/06 05:12:41;;;;;;;12.55;8.32;;;7.70;99.90;;;;;;5062393;28;20051;-82
2022/05/06 05:15:08;;;;;;;12.82;8.02;;;8.00;99.90;;;;;;5062433;28;20036;-80
2022/05/06 05:17:34;;;;;;;11.32;7.63;;;8.20;99.90;;;;;;5061730;28;20021;-82
2022/05/06 05:20:01;;;;;;;19.10;7.72;;;8.40;99.90;;;;;;5080262;28;20036;-83
2022/05/06 05:22:27;;;;;;;13.88;8.25;;;8.70;99.90;;;;;;5080446;28;20017;-83
2022/05/06 05:24:52;;;;;;;16.15;7.75;;;8.90;99.90;;;;;;5079899;28;20036;-83
2022/05/06 05:27:19;;;;;;;13.10;7.20;;;9.10;99.90;;;;;;5082151;28;20028;-83
2022/05/06 05:29:45;;;;;;;11.60;7.25;;;9.30;99.90;;;;;;5082460;28;20476;-83
2022/05/06 05:32:11;;;;;;;11.82;7.50;;;9.50;99.90;;;;;;5066062;28;20034;-82
2022/05/06 05:34:37;;;;;;;11.93;6.28;;;9.70;99.90;;;;;;5086379;28;20020;-85
2022/05/06 05:37:03;;;;;;;12.75;7.28;;;10.00;99.90;;;;;;5093142;28;20080;-82
2022/05/06 05:39:31;;;;;;;14.98;7.18;;;10.30;99.90;;;;;;5066076;28;20054;-83
2022/05/06 05:41:57;;;;;;;10.20;6.15;;;10.50;99.90;;;;;;5061048;28;20020;-84
2022/05/06 05:49:50;;;;;;;10.32;6.70;;;11.30;99.90;;;;;;5091177;28;20030;-82
2022/05/06 05:52:16;;;;;;;12.20;7.05;;;11.60;99.90;;;;;;5079827;28;20020;-79
2022/05/06 05:54:41;;;;;;;15.13;6.80;;;11.90;99.90;;;;;;5079480;28;20026;-78
2022/05/06 05:57:07;;;;;;;12.55;7.38;;;12.00;99.90;;;;;;5080558;28;20021;-78
2022/05/06 05:59:36;;;;;;;9.15;6.32;;;12.20;99.90;;;;;;5095195;28;20066;-82
2022/05/06 06:02:02;;;;;;;10.88;6.00;;;12.30;99.90;;;;;;5080163;28;20033;-84
2022/05/06 06:04:28;;;;;;;10.30;5.90;;;12.40;99.90;;;;;;5096665;28;20044;-86
2022/05/06 06:06:54;;;;;;;10.35;6.07;;;12.70;99.90;;;;;;5064864;28;20025;-84
2022/05/06 06:09:22;;;;;;;10.05;6.75;;;13.00;99.90;;;;;;5063581;28;20031;-84
2022/05/06 06:11:51;;;;;;;11.70;6.70;;;13.40;99.90;;;;;;5061962;28;20020;-86
2022/05/06 06:14:17;;;;;;;15.05;7.05;;;13.70;99.90;;;;;;5078851;28;20047;-84
2022/05/06 06:16:43;;;;;;;12.65;6.10;;;13.90;99.90;;;;;;5062983;28;20024;-83
2022/05/06 06:19:09;;;;;;;11.45;6.05;;;14.00;99.90;;;;;;5065470;28;20029;-87
2022/05/06 06:21:34;;;;;;;9.07;6.18;;;14.30;99.90;;;;;;5082116;28;20023;-86
2022/05/06 06:24:00;;;;;;;11.75;6.53;;;14.40;99.90;;;;;;5063641;28;20032;-85
2022/05/06 06:26:26;;;;;;;8.20;5.80;;;14.70;99.90;;;;;;5060658;28;20054;-84
2022/05/06 06:28:51;;;;;;;9.25;6.70;;;15.00;99.90;;;;;;5060780;28;20453;-86
2022/05/06 06:31:17;;;;;;;13.13;6.85;;;15.40;99.90;;;;;;5061675;28;20078;-86
2022/05/06 06:33:42;;;;;;;11.30;6.60;;;15.60;99.90;;;;;;5061234;28;20027;-86
2022/05/06 06:36:08;;;;;;;15.85;6.63;;;16.00;99.90;;;;;;5079089;28;20044;-83
2022/05/06 06:38:34;;;;;;;12.30;6.78;;;16.30;99.90;;;;;;5060248;28;20056;-82
2022/05/06 06:41:00;;;;;;;11.00;5.75;;;16.50;99.90;;;;;;5061067;28;20031;-84
2022/05/06 06:43:26;;;;;;;11.13;6.45;;;16.80;99.90;;;;;;5061373;28;20024;-86
2022/05/06 06:45:52;;;;;;;13.43;6.35;;;17.20;99.90;;;;;;5061060;28;20111;-85
2022/05/06 06:48:17;;;;;;;13.32;6.55;;;17.50;99.90;;;;;;5060891;28;20036;-86
2022/05/06 06:50:44;;;;;;;12.95;7.70;;;17.60;99.90;;;;;;5080361;28;20017;-85
2022/05/06 06:53:10;;;;;;;11.52;7.03;;;17.60;99.90;;;;;;5063747;28;20025;-87
2022/05/06 06:55:36;;;;;;;13.35;7.45;;;17.70;99.90;;;;;;5066496;28;20032;-83
2022/05/06 06:58:02;;;;;;;15.23;7.50;;;17.70;99.90;;;;;;5070873;28;20127;-87
2022/05/06 07:00:28;;;;;;;12.55;7.40;;;17.80;99.90;;;;;;5079623;28;20090;-82
2022/05/06 07:02:55;;;;;;;10.38;6.25;;;18.10;99.90;;;;;;5060284;28;20495;-85
2022/05/06 07:05:22;;;;;;;15.75;6.93;;;18.60;99.90;;;;;;5078212;28;20151;-84
2022/05/06 07:13:17;;;;;;;16.95;8.02;;;19.20;99.70;;;;;;5084154;28;20039;-84
2022/05/06 07:15:42;;;;;;;14.32;6.85;;;19.50;96.50;;;;;;5089556;28;20024;-82
2022/05/06 07:18:08;;;;;;;17.92;8.25;;;19.60;95.00;;;;;;5093100;28;20076;-85
2022/05/06 07:20:34;;;;;;;13.65;6.93;;;19.80;92.00;;;;;;5080017;28;20369;-84
2022/05/06 07:22:59;;;;;;;14.70;7.47;;;20.10;90.90;;;;;;5076514;28;20099;-84
2022/05/06 07:25:25;;;;;;;15.93;7.70;;;20.30;87.50;;;;;;5076086;28;20532;-83
2022/05/06 07:27:51;;;;;;;19.60;7.97;;;20.70;83.90;;;;;;5058347;28;20021;-84
2022/05/06 07:30:16;;;;;;;13.60;7.00;;;20.80;81.50;;;;;;5058427;28;20020;-86
2022/05/06 07:32:42;;;;;;;14.77;8.77;;;21.00;81.40;;;;;;5076314;28;20491;-85
2022/05/06 07:35:08;;;;;;;13.88;7.10;;;21.00;78.00;;;;;;5058734;28;20024;-84
2022/05/06 07:37:35;;;;;;;14.60;7.82;;;21.00;79.70;;;;;;5076419;28;20077;-85
2022/05/06 07:40:01;;;;;;;14.32;8.00;;;21.30;75.30;;;;;;5076135;28;20021;-85
2022/05/06 07:42:28;;;;;;;12.70;7.15;;;21.50;72.60;;;;;;5075721;28;20048;-87
2022/05/06 07:44:55;;;;;;;12.25;7.38;;;21.80;71.90;;;;;;5058149;28;20111;-84
2022/05/06 07:47:20;;;;;;;13.48;8.07;;;21.90;68.20;;;;;;5057901;28;20070;-86
2022/05/06 07:49:46;;;;;;;14.38;7.55;;;22.10;65.10;;;;;;5059101;28;20020;-85
2022/05/06 07:52:11;;;;;;;13.60;7.45;;;22.30;65.90;;;;;;5058203;28;20055;-87
2022/05/06 07:54:37;;;;;;;10.98;7.50;;;22.40;65.10;;;;;;5075829;28;20033;-85
2022/05/06 07:57:03;;;;;;;12.70;7.40;;;22.40;61.50;;;;;;5077063;28;20020;-85
2022/05/06 07:59:28;;;;;;;10.52;6.13;;;22.70;61.90;;;;;;5057260;28;20043;-85
2022/05/06 08:04:38;;;;;;;9.50;6.72;;;23.00;57.90;;;;;;5080362;28;20027;-85
2022/05/06 08:07:08;;;;;;;9.70;5.88;;;23.20;57.30;;;;;;5083328;28;20025;-84
2022/05/06 08:09:34;;;;;;;14.32;6.13;;;23.30;55.70;;;;;;5077776;28;20012;-85
2022/05/06 08:12:00;;;;;;;10.85;5.63;;;23.50;55.40;;;;;;5058421;28;20024;-84
2022/05/06 08:14:26;;;;;;;11.00;6.05;;;23.70;55.00;;;;;;5075793;28;20111;-83
2022/05/06 08:16:52;;;;;;;14.23;6.65;;;23.50;53.40;;;;;;5058833;28;20025;-86
2022/05/06 08:19:18;;;;;;;8.75;5.28;;;23.30;54.80;;;;;;5061551;28;20090;-87
2022/05/06 08:21:44;;;;;;;10.52;4.97;;;23.30;54.20;;;;;;5079556;28;20052;-86
2022/05/06 08:24:10;;;;;;;12.82;5.88;;;23.60;54.80;;;;;;5063049;28;20040;-86
2022/05/06 08:26:36;;;;;;;13.00;5.53;;;23.50;55.00;;;;;;5063150;28;20028;-86
2022/05/06 08:29:03;;;;;;;13.77;6.05;;;23.60;54.30;;;;;;5064347;28;20061;-84
2022/05/06 08:31:31;;;;;;;12.48;6.43;;;23.90;56.70;;;;;;5081190;28;20023;-85
2022/05/06 08:33:58;;;;;;;11.65;6.30;;;24.10;54.10;;;;;;5061717;28;20117;-83
2022/05/06 08:36:23;;;;;;;11.57;6.45;;;23.90;54.50;;;;;;5080449;28;20027;-86
2022/05/06 08:38:49;;;;;;;8.65;5.18;;;23.90;53.80;;;;;;5061240;28;20028;-82
2022/05/06 08:41:15;;;;;;;12.13;6.60;;;24.00;54.60;;;;;;5061167;28;20078;-86
2022/05/06 08:43:41;;;;;;;9.52;5.68;;;23.90;54.50;;;;;;5078917;28;20020;-82
2022/05/06 08:51:39;;;;;;;12.10;6.43;;;24.60;52.90;;;;;;5080210;28;20111;-83
2022/05/06 08:54:05;;;;;;;8.27;6.13;;;24.80;52.30;;;;;;5063258;28;20028;-87
2022/05/06 08:56:32;;;;;;;9.18;6.20;;;24.80;51.50;;;;;;5062605;28;20032;-86
2022/05/06 08:58:58;;;;;;;10.90;6.25;;;24.70;51.80;;;;;;5062416;28;20028;-84
2022/05/06 09:01:25;;;;;;;11.90;6.35;;;24.90;51.60;;;;;;5064629;28;20024;-83
2022/05/06 09:03:51;;;;;;;7.85;4.82;;;25.00;51.20;;;;;;5084393;28;20490;-87
2022/05/06 09:06:22;;;;;;;10.80;6.30;;;25.00;51.40;;;;;;5062103;28;20031;-85
2022/05/06 09:08:51;;;;;;;14.25;6.78;;;25.10;51.30;;;;;;5084498;22;20034;-85
2022/05/06 09:12:40;;;;;;;10.07;7.05;;;25.00;51.20;;;;;;5023750;28;20028;-83
2022/05/06 09:14:04;;;;;;;10.32;6.97;;;24.70;51.00;;;;;;5041492;28;20018;-83
2022/05/06 09:16:42;;;;;;;11.75;6.78;;;24.80;51.00;;;;;;5022867;28;20029;-84
2022/05/06 09:19:19;;;;;;;14.23;8.13;;;24.90;52.10;;;;;;5039973;28;20029;-84
2022/05/06 09:22:04;;;;;;;10.73;6.78;;;24.50;51.10;;;;;;5022642;28;20029;-84
2022/05/06 09:24:31;;;;;;;11.65;8.00;;;24.60;52.60;;;;;;5023009;28;20451;-86
2022/05/06 09:27:04;;;;;;;14.88;7.57;;;24.70;52.90;;;;;;5022463;28;20028;-83
2022/05/06 09:29:34;;;;;;;10.20;6.50;;;25.00;52.10;;;;;;5020385;28;20029;-85
2022/05/06 09:32:21;;;;;;;10.90;7.88;;;25.10;51.60;;;;;;5022407;28;20051;-84
2022/05/06 09:34:52;;;;;;;13.90;7.13;;;25.30;51.20;;;;;;5031115;28;20060;-82
2022/05/06 09:37:45;;;;;;;12.57;6.68;;;25.40;51.00;;;;;;5021551;28;20176;-85
2022/05/06 09:40:22;;;;;;;13.35;6.82;;;25.50;52.10;;;;;;5022530;28;20064;-85
2022/05/06 09:43:00;;;;;;;10.90;6.43;;;25.70;51.90;;;;;;5022521;28;20021;-85
2022/05/06 09:45:39;;;;;;;11.95;6.88;;;25.60;50.60;;;;;;5022705;28;20025;-84
2022/05/06 09:48:08;;;;;;;12.23;5.82;;;25.60;50.00;;;;;;5040346;28;20017;-86
2022/05/06 09:50:39;;;;;;;10.30;6.82;;;25.90;50.90;;;;;;5025647;28;20028;-83
2022/05/06 09:53:09;;;;;;;13.25;6.80;;;25.90;49.50;;;;;;5052270;28;20100;-86
2022/05/06 09:55:37;;;;;;;11.95;7.60;;;25.80;49.10;;;;;;5038684;28;20022;-86
2022/05/06 09:58:04;;;;;;;12.73;7.00;;;25.80;50.30;;;;;;5038545;28;20026;-84
2022/05/06 10:00:29;;;;;;;10.80;7.75;;;26.10;50.80;;;;;;5018696;28;20025;-84
2022/05/06 10:02:56;;;;;;;10.40;6.18;;;26.30;48.40;;;;;;5038113;28;20028;-83
2022/05/06 10:05:24;;;;;;;8.98;7.07;;;26.30;50.30;;;;;;5036843;28;20017;-83
2022/05/06 10:07:55;;;;;;;11.20;7.20;;;26.20;49.70;;;;;;5019130;28;20530;-82
2022/05/06 10:10:24;;;;;;;7.85;6.63;;;26.00;48.30;;;;;;5019099;28;20125;-86
2022/05/06 10:12:54;;;;;;;10.18;6.00;;;26.00;50.50;;;;;;5037188;28;20025;-85
2022/05/06 10:15:23;;;;;;;8.75;6.55;;;26.10;49.20;;;;;;5037286;28;20022;-83
2022/05/06 10:17:52;;;;;;;11.77;6.78;;;26.20;49.80;;;;;;5020633;28;20021;-83
2022/05/06 10:20:36;;;;;;;9.35;6.93;;;26.30;49.80;;;;;;5037788;28;20022;-82
2022/05/06 10:23:15;;;;;;;10.77;8.45;;;26.50;48.00;;;;;;5019368;28;20025;-85
2022/05/06 10:25:40;;;;;;;8.98;6.13;;;26.40;47.30;;;;;;5019493;28;20058;-85
2022/05/06 10:34:12;;;;;;;10.23;7.50;;;26.60;47.30;;;;;;5036873;28;20048;-83
2022/05/06 10:36:45;;;;;;;12.50;9.02;;;26.80;47.90;;;;;;5020316;28;20021;-86
2022/05/06 10:39:33;;;;;;;9.43;7.88;;;26.80;48.40;;;;;;5036994;28;20025;-84
2022/05/06 10:42:17;;;;;;;14.63;10.15;;;27.00;49.20;;;;;;5017938;28;20029;-83
2022/05/06 10:44:44;;;;;;;11.25;7.85;;;27.10;46.80;;;;;;5036765;28;20025;-83
2022/05/06 10:47:12;;;;;;;12.40;7.70;;;26.30;46.60;;;;;;5037816;28;20017;-83
2022/05/06 10:49:42;;;;;;;11.25;7.28;;;25.30;48.40;;;;;;5018159;28;20418;-83
2022/05/06 10:52:28;;;;;;;10.65;7.50;;;24.30;50.50;;;;;;5017540;28;20053;-83
2022/05/06 10:54:56;;;;;;;8.70;6.82;;;23.50;52.80;;;;;;5036681;28;20078;-83
2022/05/06 10:57:23;;;;;;;9.70;7.15;;;22.90;53.30;;;;;;5017615;28;20029;-83
2022/05/06 10:59:57;;;;;;;11.77;7.10;;;22.60;53.90;;;;;;5038214;28;20063;-80
2022/05/06 11:02:25;;;;;;;11.95;8.00;;;23.30;52.80;;;;;;5020667;28;20033;-84
2022/05/06 11:04:56;;;;;;;15.52;9.00;;;23.90;53.60;;;;;;5022363;28;20039;-82
2022/05/06 11:07:21;;;;;;;12.13;8.68;;;24.50;50.90;;;;;;5038888;28;20483;-81
2022/05/06 11:09:48;;;;;;;9.55;7.18;;;24.60;51.10;;;;;;5021533;28;20022;-83
2022/05/06 11:12:37;;;;;;;14.82;6.95;;;25.10;50.10;;;;;;5040012;28;20036;-83
2022/05/06 11:15:08;;;;;;;9.40;6.50;;;25.10;49.20;;;;;;5038919;28;20026;-84
2022/05/06 11:17:34;;;;;;;8.98;5.95;;;24.70;49.80;;;;;;5021153;28;20124;-83
2022/05/06 11:20:01;;;;;;;16.25;6.50;;;24.10;50.60;;;;;;5021054;28;20052;-83
2022/05/06 11:22:27;;;;;;;9.00;6.32;;;23.80;52.20;;;;;;5020030;28;20029;-84
2022/05/06 11:24:56;;;;;;;12.35;6.65;;;23.70;52.00;;;;;;5037349;28;20100;-86
2022/05/06 11:27:22;;;;;;;13.95;6.93;;;24.10;49.50;;;;;;5037540;28;20025;-81
2022/05/06 11:29:57;;;;;;;8.57;5.68;;;24.20;48.90;;;;;;5038107;28;20021;-82
2022/05/06 11:32:28;;;;;;;12.13;5.95;;;24.10;49.90;;;;;;5027935;28;20025;-84
2022/05/06 11:35:09;;;;;;;17.30;10.38;;;23.90;51.90;;;;;;5022767;28;20053;-85
2022/05/06 11:37:39;;;;;;;13.32;9.00;;;23.60;52.90;;;;;;5020746;28;20595;-81
2022/05/06 11:40:32;;;;;;;13.18;9.68;;;23.10;54.90;;;;;;5039106;28;20048;-83
2022/05/06 11:43:06;;;;;;;16.65;11.45;;;22.80;55.10;;;;;;5040107;28;20027;-83
2022/05/06 11:48:23;;;;;;;17.80;11.18;;;22.10;57.50;;;;;;5038364;28;20028;-84
2022/05/06 11:51:01;;;;;;;12.65;9.07;;;21.90;57.30;;;;;;5020390;28;20464;-83
2022/05/06 11:53:27;;;;;;;15.70;11.52;;;21.80;59.20;;;;;;5019512;28;20029;-81
2022/05/06 11:55:55;;;;;;;16.85;10.45;;;21.70;60.20;;;;;;5037102;28;20060;-86
2022/05/06 11:58:22;;;;;;;15.57;11.15;;;21.70;60.50;;;;;;5018828;28;20408;-83
2022/05/06 12:00:50;;;;;;;16.48;10.63;;;22.30;59.80;;;;;;5036735;28;20030;-83
2022/05/06 12:03:16;;;;;;;18.15;10.60;;;23.10;56.10;;;;;;5022497;28;20112;-84
2022/05/06 12:05:42;;;;;;;14.73;10.70;;;23.90;55.00;;;;;;5022454;28;20053;-87
2022/05/06 12:08:08;;;;;;;15.50;11.27;;;24.70;53.60;;;;;;5039426;28;20057;-87
2022/05/06 12:10:36;;;;;;;16.17;10.32;;;25.30;50.60;;;;;;5039695;28;20041;-86
2022/05/06 12:13:10;;;;;;;16.60;10.43;;;25.70;49.60;;;;;;5020208;28;20037;-83
2022/05/06 12:15:40;;;;;;;15.25;10.68;;;25.60;50.00;;;;;;5023845;28;20025;-82
2022/05/06 12:18:10;;;;;;;12.82;10.35;;;24.90;49.10;;;;;;5020318;28;20045;-84
2022/05/06 12:20:41;;;;;;;10.98;8.75;;;24.00;51.30;;;;;;5039059;28;20017;-84
2022/05/06 12:23:08;;;;;;;13.18;9.63;;;23.40;53.80;;;;;;5020900;28;20028;-85
2022/05/06 12:25:41;;;;;;;12.48;10.15;;;22.90;55.60;;;;;;5019943;28;20021;-84
2022/05/06 12:28:09;;;;;;;15.10;10.95;;;22.40;58.00;;;;;;5021895;28;20044;-85
2022/05/06 12:30:36;;;;;;;17.70;11.63;;;22.10;59.90;;;;;;5022070;28;20021;-84
2022/05/06 12:33:04;;;;;;;15.38;10.95;;;21.80;61.10;;;;;;5036833;28;20018;-86
2022/05/06 12:35:29;;;;;;;16.50;11.52;;;21.60;60.60;;;;;;5019728;28;20068;-83
2022/05/06 12:38:00;;;;;;;16.23;10.80;;;21.60;61.70;;;;;;5018592;28;20022;-84
2022/05/06 12:40:34;;;;;;;16.52;10.32;;;21.50;60.60;;;;;;5017272;28;20397;-84
2022/05/06 12:43:10;;;;;;;22.65;12.25;;;21.40;62.30;;;;;;5016695;28;20619;-83
2022/05/06 12:45:36;;;;;;;20.15;10.57;;;21.40;61.30;;;;;;5017589;28;20026;-84
2022/05/06 12:50:46;;;;;;;18.60;10.57;;;22.70;60.10;;;;;;5037014;28;20108;-85
2022/05/06 12:53:12;;;;;;;13.02;9.10;;;23.70;56.90;;;;;;5018795;28;20060;-83
2022/05/06 12:55:38;;;;;;;13.65;8.40;;;24.40;55.80;;;;;;5018338;28;20132;-84
2022/05/06 12:58:04;;;;;;;10.70;8.00;;;24.80;53.90;;;;;;5036540;28;20025;-86
2022/05/06 13:00:30;;;;;;;13.65;10.27;;;25.10;54.30;;;;;;5036386;28;20025;-84
2022/05/06 13:02:58;;;;;;;13.15;10.10;;;25.30;52.30;;;;;;5036823;28;20021;-87
2022/05/06 13:05:24;;;;;;;13.23;8.88;;;25.40;52.00;;;;;;5022404;28;20020;-85
2022/05/06 13:07:49;;;;;;;11.23;7.53;;;25.00;52.20;;;;;;5023033;28;20053;-84
2022/05/06 13:10:15;;;;;;;12.85;10.00;;;25.20;53.10;;;;;;5040804;28;20018;-86
2022/05/06 13:12:41;;;;;;;13.18;10.00;;;25.10;51.40;;;;;;5043712;28;20033;-86
2022/05/06 13:15:07;;;;;;;12.23;9.13;;;25.00;53.70;;;;;;5025683;28;20029;-85
2022/05/06 13:17:32;;;;;;;12.63;8.85;;;25.10;52.90;;;;;;5044633;28;20036;-84
2022/05/06 13:19:58;;;;;;;14.10;8.90;;;25.10;52.40;;;;;;5031287;28;20009;-82
2022/05/06 13:22:25;;;;;;;14.20;7.97;;;25.10;51.70;;;;;;5051809;28;20021;-85
2022/05/06 13:24:51;;;;;;;11.43;8.95;;;25.30;52.50;;;;;;5041170;28;20021;-85
2022/05/06 13:27:17;;;;;;;13.90;8.13;;;25.40;51.40;;;;;;5045108;28;20037;-87